createdAt,value
2023-03-08T00:01:56.071Z,0.67
2023-03-08T00:04:22.498Z,0.60
2023-03-08T00:06:48.919Z,1.10
2023-03-08T00:09:15.246Z,1.00
2023-03-08T00:11:41.689Z,0.87
2023-03-08T00:14:07.982Z,1.20
2023-03-08T00:16:34.301Z,0.90
2023-03-08T00:19:00.603Z,0.83
2023-03-08T00:21:26.951Z,0.53
2023-03-08T00:23:56.518Z,0.67
2023-03-08T00:26:23.154Z,1.00
2023-03-08T00:28:49.495Z,0.90
2023-03-08T00:31:15.849Z,0.60
2023-03-08T00:33:42.305Z,0.90
2023-03-08T00:36:18.613Z,1.03
2023-03-08T00:38:45.197Z,0.73
2023-03-08T00:41:11.949Z,0.80
2023-03-08T00:43:38.584Z,1.53
2023-03-08T00:46:05.395Z,1.10
2023-03-08T00:48:31.798Z,0.80
2023-03-08T00:50:58.186Z,0.90
2023-03-08T00:53:24.467Z,0.90
2023-03-08T00:55:51.729Z,4.53
2023-03-08T00:58:18.527Z,2.10
2023-03-08T01:00:45.230Z,1.30
2023-03-08T01:03:11.621Z,1.27
2023-03-08T01:05:41.102Z,1.40
2023-03-08T01:08:07.496Z,1.43
2023-03-08T01:10:34.078Z,1.20
2023-03-08T01:13:00.520Z,1.47
2023-03-08T01:15:26.898Z,1.43
2023-03-08T01:17:53.199Z,1.67
2023-03-08T01:20:19.605Z,1.90
2023-03-08T01:22:45.915Z,1.77
2023-03-08T01:25:12.216Z,1.77
2023-03-08T01:27:38.553Z,1.33
2023-03-08T01:30:05.081Z,1.30
2023-03-08T01:32:31.485Z,1.30
2023-03-08T01:35:02.013Z,1.10
2023-03-08T01:37:28.401Z,1.17
2023-03-08T01:39:54.701Z,1.27
2023-03-08T01:42:21.027Z,0.70
2023-03-08T01:44:50.713Z,0.70
2023-03-08T01:47:21.146Z,1.17
2023-03-08T01:49:47.887Z,0.30
2023-03-08T01:52:23.426Z,0.40
2023-03-08T01:54:52.840Z,0.50
2023-03-08T01:57:24.024Z,0.37
2023-03-08T01:59:51.103Z,0.43
2023-03-08T02:02:21.252Z,0.67
2023-03-08T02:04:47.576Z,0.30
2023-03-08T02:07:13.876Z,0.33
2023-03-08T02:09:40.313Z,0.40
2023-03-08T02:12:08.814Z,0.40
2023-03-08T02:14:35.173Z,0.40
2023-03-08T02:17:01.510Z,0.20
2023-03-08T02:19:33.971Z,0.30
2023-03-08T02:22:07.472Z,0.40
2023-03-08T02:24:33.758Z,0.43
2023-03-08T02:27:02.184Z,0.20
2023-03-08T02:29:28.488Z,0.20
2023-03-08T02:31:54.783Z,0.20
2023-03-08T02:34:21.216Z,0.27
2023-03-08T02:36:47.548Z,0.30
2023-03-08T02:39:14.014Z,0.50
2023-03-08T02:41:40.391Z,0.43
2023-03-08T02:44:06.715Z,0.50
2023-03-08T02:46:34.270Z,0.33
2023-03-08T02:49:00.546Z,0.60
2023-03-08T02:51:26.986Z,0.47
2023-03-08T02:53:53.399Z,0.37
2023-03-08T02:56:19.717Z,0.37
2023-03-08T02:58:46.012Z,0.50
2023-03-08T03:01:15.886Z,0.33
2023-03-08T03:03:42.481Z,0.33
2023-03-08T03:06:16.148Z,0.23
2023-03-08T03:08:42.513Z,0.60
2023-03-08T03:11:16.660Z,0.50
2023-03-08T03:13:43.266Z,0.50
2023-03-08T03:16:11.215Z,0.40
2023-03-08T03:18:37.613Z,0.50
2023-03-08T03:21:05.148Z,0.30
2023-03-08T03:23:31.501Z,0.30
2023-03-08T03:26:03.333Z,0.40
2023-03-08T03:28:29.637Z,0.30
2023-03-08T03:30:55.982Z,0.47
2023-03-08T03:33:22.309Z,0.20
2023-03-08T03:35:48.689Z,0.37
2023-03-08T03:38:15.110Z,0.67
2023-03-08T03:40:41.518Z,0.47
2023-03-08T03:43:07.810Z,0.60
2023-03-08T03:45:34.171Z,0.50
2023-03-08T03:48:00.494Z,0.77
2023-03-08T03:50:26.802Z,0.30
2023-03-08T03:52:53.089Z,0.40
2023-03-08T03:55:19.533Z,0.70
2023-03-08T03:57:45.946Z,0.50
2023-03-08T04:00:12.613Z,0.73
2023-03-08T04:02:39.027Z,0.50
2023-03-08T04:05:07.567Z,0.67
2023-03-08T04:07:34.019Z,0.30
2023-03-08T04:10:00.313Z,0.40
2023-03-08T04:12:26.746Z,0.40
2023-03-08T04:14:53.415Z,0.30
2023-03-08T04:17:19.726Z,0.37
2023-03-08T04:19:48.029Z,0.30
2023-03-08T04:22:14.348Z,0.40
2023-03-08T04:24:40.724Z,0.43
2023-03-08T04:27:07.040Z,0.50
2023-03-08T04:29:33.440Z,0.83
2023-03-08T04:32:00.344Z,0.50
2023-03-08T04:34:27.541Z,0.50
2023-03-08T04:36:53.863Z,0.50
2023-03-08T04:39:20.203Z,0.50
2023-03-08T04:41:46.535Z,0.60
2023-03-08T04:44:12.841Z,0.60
2023-03-08T04:46:39.282Z,0.40
2023-03-08T04:49:05.598Z,0.40
2023-03-08T04:51:31.998Z,0.30
2023-03-08T04:53:58.301Z,0.47
2023-03-08T04:56:24.641Z,0.90
2023-03-08T04:58:51.052Z,0.60
2023-03-08T05:01:18.413Z,0.47
2023-03-08T05:03:45.192Z,0.57
2023-03-08T05:06:12.392Z,0.83
2023-03-08T05:08:38.686Z,0.47
2023-03-08T05:11:05.390Z,1.23
2023-03-08T05:13:33.242Z,0.50
2023-03-08T05:15:59.625Z,0.53
2023-03-08T05:18:25.984Z,1.10
2023-03-08T05:20:59.175Z,0.60
2023-03-08T05:23:28.112Z,0.90
2023-03-08T05:25:55.634Z,0.63
2023-03-08T05:28:23.140Z,0.90
2023-03-08T05:30:49.938Z,1.20
2023-03-08T05:33:17.493Z,1.70
2023-03-08T05:35:43.960Z,1.83
2023-03-08T05:38:10.313Z,1.90
2023-03-08T05:40:37.856Z,3.30
2023-03-08T05:43:04.127Z,4.30
2023-03-08T05:45:30.592Z,4.37
2023-03-08T05:47:56.996Z,4.13
2023-03-08T05:50:23.281Z,4.23
2023-03-08T05:52:49.618Z,4.93
2023-03-08T05:55:16.060Z,4.57
2023-03-08T05:57:42.349Z,4.47
2023-03-08T06:00:09.086Z,5.03
2023-03-08T06:02:35.622Z,5.27
2023-03-08T06:05:01.966Z,5.43
2023-03-08T06:07:28.379Z,5.07
2023-03-08T06:09:55.786Z,5.60
2023-03-08T06:12:22.210Z,5.87
2023-03-08T06:14:48.626Z,6.07
2023-03-08T06:17:15.009Z,8.10
2023-03-08T06:19:41.389Z,8.10
2023-03-08T06:22:07.712Z,9.33
2023-03-08T06:24:34.145Z,8.13
2023-03-08T06:27:00.522Z,9.97
2023-03-08T06:29:26.897Z,9.63
2023-03-08T06:31:53.206Z,10.00
2023-03-08T06:34:20.101Z,10.67
2023-03-08T06:36:46.377Z,10.87
2023-03-08T06:39:12.654Z,9.73
2023-03-08T06:41:39.083Z,8.43
2023-03-08T06:44:05.477Z,8.47
2023-03-08T06:46:31.908Z,10.40
2023-03-08T06:49:00.253Z,10.40
2023-03-08T06:51:26.565Z,9.60
2023-03-08T06:53:52.973Z,10.73
2023-03-08T06:56:19.378Z,11.57
2023-03-08T06:58:45.795Z,12.00
2023-03-08T07:01:13.072Z,13.47
2023-03-08T07:03:39.561Z,13.20
2023-03-08T07:06:08.080Z,14.17
2023-03-08T07:08:36.450Z,13.97
2023-03-08T07:11:03.180Z,13.00
2023-03-08T07:13:29.883Z,13.30
2023-03-08T07:15:56.889Z,11.97
2023-03-08T07:18:23.500Z,13.00
2023-03-08T07:20:53.668Z,12.73
2023-03-08T07:23:20.106Z,11.70
2023-03-08T07:25:46.525Z,10.27
2023-03-08T07:28:13.071Z,13.17
2023-03-08T07:30:39.409Z,13.53
2023-03-08T07:33:05.886Z,13.07
2023-03-08T07:35:32.392Z,14.87
2023-03-08T07:37:58.804Z,13.73
2023-03-08T07:40:25.147Z,13.27
2023-03-08T07:42:51.540Z,12.47
2023-03-08T07:45:18.749Z,10.90
2023-03-08T07:47:45.104Z,12.67
2023-03-08T07:50:11.402Z,12.67
2023-03-08T07:52:37.745Z,12.27
2023-03-08T07:55:04.265Z,11.70
2023-03-08T07:57:30.653Z,12.07
2023-03-08T07:59:56.946Z,11.10
2023-03-08T08:02:23.219Z,11.67
2023-03-08T08:04:50.683Z,12.63
2023-03-08T08:07:17.103Z,12.30
2023-03-08T08:09:43.525Z,11.80
2023-03-08T08:12:09.858Z,10.73
2023-03-08T08:14:36.265Z,11.30
2023-03-08T08:17:02.646Z,12.23
2023-03-08T08:19:29.664Z,9.97
2023-03-08T08:21:56.011Z,10.70
2023-03-08T08:24:22.323Z,9.50
2023-03-08T08:26:48.636Z,9.10
2023-03-08T08:29:15.027Z,10.23
2023-03-08T08:31:41.581Z,9.53
2023-03-08T08:34:08.215Z,9.73
2023-03-08T08:36:34.618Z,9.00
2023-03-08T08:39:01.035Z,10.10
2023-03-08T08:41:29.731Z,8.93
2023-03-08T08:43:59.566Z,11.87
2023-03-08T08:46:27.864Z,12.13
2023-03-08T08:48:54.796Z,13.37
2023-03-08T08:51:21.165Z,13.40
2023-03-08T08:53:47.490Z,14.57
2023-03-08T08:56:27.675Z,15.40
2023-03-08T08:59:00.051Z,13.97
2023-03-08T09:01:30.789Z,17.30
2023-03-08T09:03:57.766Z,17.40
2023-03-08T09:06:24.582Z,18.00
2023-03-08T09:08:55.239Z,15.27
2023-03-08T09:11:21.904Z,18.17
2023-03-08T09:13:48.422Z,17.80
2023-03-08T09:16:19.027Z,19.27
2023-03-08T09:18:45.672Z,17.57
2023-03-08T09:21:12.015Z,18.53
2023-03-08T09:23:38.445Z,14.47
2023-03-08T09:26:06.110Z,23.10
2023-03-08T09:28:32.925Z,19.43
2023-03-08T09:30:59.377Z,20.83
2023-03-08T09:33:26.172Z,21.73
2023-03-08T09:36:13.875Z,18.80
2023-03-08T09:38:40.836Z,21.37
2023-03-08T09:41:07.132Z,17.47
2023-03-08T09:43:48.437Z,20.93
2023-03-08T09:46:16.941Z,17.37
2023-03-08T09:48:47.187Z,16.53
2023-03-08T09:51:13.854Z,21.10
2023-03-08T09:53:42.583Z,16.23
2023-03-08T09:56:16.806Z,19.23
2023-03-08T09:58:46.980Z,19.50
2023-03-08T10:01:16.189Z,20.87
2023-03-08T10:04:02.846Z,18.00
2023-03-08T10:06:33.832Z,17.93
2023-03-08T10:09:07.656Z,17.33
2023-03-08T10:11:33.967Z,17.57
2023-03-08T10:14:03.062Z,18.23
2023-03-08T10:16:32.241Z,17.73
2023-03-08T10:19:01.094Z,16.33
2023-03-08T10:21:29.781Z,16.70
2023-03-08T10:23:59.509Z,12.23
2023-03-08T10:26:27.043Z,19.50
2023-03-08T10:28:53.429Z,16.40
2023-03-08T10:31:24.388Z,17.87
2023-03-08T10:33:53.698Z,17.87
2023-03-08T10:36:21.891Z,14.43
2023-03-08T10:39:07.057Z,16.93
2023-03-08T10:41:37.431Z,15.53
2023-03-08T10:44:04.050Z,16.17
2023-03-08T10:46:32.804Z,14.13
2023-03-08T10:49:18.407Z,14.73
2023-03-08T10:51:58.758Z,13.33
2023-03-08T10:54:25.663Z,14.17
2023-03-08T10:56:56.724Z,12.40
2023-03-08T10:59:29.612Z,12.67
2023-03-08T11:01:56.974Z,12.57
2023-03-08T11:04:24.842Z,12.10
2023-03-08T11:06:51.331Z,11.60
2023-03-08T11:09:28.064Z,12.67
2023-03-08T11:11:55.760Z,12.30
2023-03-08T11:14:22.438Z,10.93
2023-03-08T11:16:48.958Z,12.60
2023-03-08T11:19:34.088Z,12.53
2023-03-08T11:22:32.950Z,12.30
2023-03-08T11:25:14.596Z,12.47
2023-03-08T11:27:41.008Z,10.97
2023-03-08T11:30:22.760Z,10.40
2023-03-08T11:32:55.338Z,13.77
2023-03-08T11:35:29.800Z,12.13
2023-03-08T11:38:06.376Z,11.73
2023-03-08T11:40:51.748Z,10.63
2023-03-08T11:43:24.273Z,12.13
2023-03-08T11:46:01.877Z,11.43
2023-03-08T11:48:51.281Z,11.00
2023-03-08T11:51:21.094Z,12.37
2023-03-08T11:54:09.498Z,11.40
2023-03-08T11:56:38.654Z,10.03
2023-03-08T11:59:11.052Z,9.80
2023-03-08T12:01:41.174Z,10.13
2023-03-08T12:04:11.314Z,10.50
2023-03-08T12:06:42.612Z,9.47
2023-03-08T12:09:22.737Z,8.40
2023-03-08T12:12:07.833Z,9.13
2023-03-08T12:14:35.226Z,9.90
2023-03-08T12:17:01.826Z,9.67
2023-03-08T12:19:39.938Z,8.43
2023-03-08T12:22:23.413Z,8.30
2023-03-08T12:25:00.894Z,9.07
2023-03-08T12:27:45.927Z,9.83
2023-03-08T12:30:30.901Z,9.77
2023-03-08T12:32:59.122Z,10.10
2023-03-08T12:35:33.560Z,9.60
2023-03-08T12:38:02.799Z,9.60
2023-03-08T12:40:49.486Z,10.77
2023-03-08T12:43:21.662Z,9.60
2023-03-08T12:46:00.213Z,10.67
2023-03-08T12:48:26.842Z,10.07
2023-03-08T12:50:53.265Z,10.20
2023-03-08T12:53:22.425Z,11.17
2023-03-08T12:55:59.254Z,9.60
2023-03-08T12:58:25.974Z,10.73
2023-03-08T13:01:00.324Z,10.23
2023-03-08T13:03:28.816Z,9.63
2023-03-08T13:05:56.633Z,10.33
2023-03-08T13:08:29.535Z,10.53
2023-03-08T13:10:58.516Z,9.37
2023-03-08T13:13:43.664Z,9.10
2023-03-08T13:16:16.157Z,8.20
2023-03-08T13:18:43.720Z,8.80
2023-03-08T13:21:10.088Z,9.73
2023-03-08T13:23:38.437Z,10.03
2023-03-08T13:26:23.581Z,9.77
2023-03-08T13:28:50.101Z,9.67
2023-03-08T13:31:18.633Z,8.77
2023-03-08T13:33:52.512Z,8.30
2023-03-08T13:36:29.536Z,7.63
2023-03-08T13:38:58.968Z,10.10
2023-03-08T13:41:35.914Z,8.43
2023-03-08T13:44:03.391Z,8.93
2023-03-08T13:46:29.896Z,6.70
2023-03-08T13:48:56.374Z,8.17
2023-03-08T13:51:25.055Z,7.70
2023-03-08T13:53:51.509Z,7.90
2023-03-08T13:56:27.852Z,7.93
2023-03-08T13:58:55.707Z,9.90
2023-03-08T14:01:23.860Z,8.80
2023-03-08T14:03:51.063Z,8.20
2023-03-08T14:06:30.447Z,8.07
2023-03-08T14:09:02.343Z,8.43
2023-03-08T14:11:38.828Z,8.03
2023-03-08T14:14:07.362Z,8.53
2023-03-08T14:16:34.827Z,8.07
2023-03-08T14:19:09.737Z,7.03
2023-03-08T14:21:36.326Z,7.97
2023-03-08T14:24:06.177Z,7.33
2023-03-08T14:26:34.306Z,8.37
2023-03-08T14:29:10.045Z,8.37
2023-03-08T14:31:38.928Z,7.13
2023-03-08T14:34:17.449Z,7.60
2023-03-08T14:36:52.377Z,6.37
2023-03-08T14:39:19.098Z,7.90
2023-03-08T14:41:45.451Z,6.70
2023-03-08T14:44:18.677Z,8.23
2023-03-08T14:46:46.116Z,6.97
2023-03-08T14:49:22.654Z,7.13
2023-03-08T14:51:49.804Z,8.03
2023-03-08T14:54:24.424Z,6.33
2023-03-08T14:56:50.869Z,7.60
2023-03-08T14:59:26.862Z,6.13
2023-03-08T15:01:54.102Z,6.97
2023-03-08T15:04:22.451Z,7.63
2023-03-08T15:06:49.908Z,5.97
2023-03-08T15:09:17.480Z,6.83
2023-03-08T15:11:44.693Z,6.37
2023-03-08T15:14:14.335Z,6.73
2023-03-08T15:16:40.801Z,5.57
2023-03-08T15:19:08.711Z,4.30
2023-03-08T15:21:36.358Z,5.83
2023-03-08T15:24:02.905Z,5.70
2023-03-08T15:26:31.660Z,6.23
2023-03-08T15:28:58.610Z,7.23
2023-03-08T15:31:25.101Z,5.93
2023-03-08T15:33:51.468Z,6.60
2023-03-08T15:36:18.478Z,5.53
2023-03-08T15:38:45.340Z,6.97
2023-03-08T15:41:12.527Z,5.23
2023-03-08T15:43:39.097Z,5.97
2023-03-08T15:46:05.830Z,5.53
2023-03-08T15:48:32.321Z,5.20
2023-03-08T15:50:58.871Z,4.60
2023-03-08T15:53:34.834Z,5.03
2023-03-08T15:56:01.808Z,5.73
2023-03-08T15:58:28.211Z,4.53
2023-03-08T16:00:54.638Z,4.77
2023-03-08T16:03:26.049Z,4.50
2023-03-08T16:05:52.786Z,4.97
2023-03-08T16:08:19.197Z,4.63
2023-03-08T16:10:45.889Z,4.00
2023-03-08T16:13:12.676Z,3.70
2023-03-08T16:15:39.549Z,3.97
2023-03-08T16:18:05.860Z,3.40
2023-03-08T16:20:32.337Z,3.70
2023-03-08T16:22:58.774Z,4.27
2023-03-08T16:25:25.080Z,3.60
2023-03-08T16:27:52.616Z,3.60
2023-03-08T16:30:19.194Z,4.50
2023-03-08T16:32:45.536Z,3.77
2023-03-08T16:35:12.988Z,3.57
2023-03-08T16:37:39.280Z,4.17
2023-03-08T16:40:07.364Z,4.03
2023-03-08T16:42:33.823Z,3.57
2023-03-08T16:45:00.251Z,4.20
2023-03-08T16:47:26.852Z,3.37
2023-03-08T16:49:53.577Z,3.93
2023-03-08T16:52:20.070Z,4.30
2023-03-08T16:54:46.891Z,3.90
2023-03-08T16:57:19.197Z,4.00
2023-03-08T16:59:46.028Z,3.37
2023-03-08T17:02:16.398Z,3.97
2023-03-08T17:04:42.731Z,4.30
2023-03-08T17:07:09.828Z,3.53
2023-03-08T17:09:36.884Z,4.97
2023-03-08T17:12:03.324Z,4.53
2023-03-08T17:14:29.954Z,4.33
2023-03-08T17:16:56.448Z,4.53
2023-03-08T17:19:22.804Z,4.93
2023-03-08T17:21:49.917Z,4.50
2023-03-08T17:24:16.708Z,5.50
2023-03-08T17:26:45.763Z,5.90
2023-03-08T17:29:12.225Z,5.70
2023-03-08T17:31:40.872Z,6.70
2023-03-08T17:34:07.446Z,5.93
2023-03-08T17:36:33.832Z,6.23
2023-03-08T17:39:00.289Z,5.70
2023-03-08T17:41:26.666Z,6.97
2023-03-08T17:43:53.863Z,6.10
2023-03-08T17:46:23.972Z,6.57
2023-03-08T17:48:53.384Z,7.40
2023-03-08T17:51:21.232Z,7.17
2023-03-08T17:53:47.946Z,7.53
2023-03-08T17:56:15.686Z,7.70
2023-03-08T17:58:42.521Z,7.57
2023-03-08T18:01:18.812Z,8.63
2023-03-08T18:03:45.609Z,8.23
2023-03-08T18:06:18.623Z,8.17
2023-03-08T18:08:45.036Z,10.03
2023-03-08T18:11:11.338Z,9.93
2023-03-08T18:13:39.765Z,9.37
2023-03-08T18:16:07.003Z,9.83
2023-03-08T18:18:33.695Z,9.53
2023-03-08T18:21:12.119Z,8.93
2023-03-08T18:23:39.345Z,9.03
2023-03-08T18:26:05.715Z,9.60
2023-03-08T18:28:34.172Z,9.17
2023-03-08T18:31:00.501Z,8.70
2023-03-08T18:33:26.948Z,9.47
2023-03-08T18:35:57.407Z,10.10
2023-03-08T18:38:24.492Z,10.40
2023-03-08T18:40:50.935Z,9.40
2023-03-08T18:43:17.224Z,9.93
2023-03-08T18:45:51.151Z,10.20
2023-03-08T18:48:17.483Z,10.23
2023-03-08T18:50:44.534Z,9.23
2023-03-08T18:53:15.586Z,10.90
2023-03-08T18:55:52.510Z,10.67
2023-03-08T18:58:18.833Z,9.50
2023-03-08T19:00:45.397Z,9.63
2023-03-08T19:03:11.814Z,11.63
2023-03-08T19:05:38.306Z,11.53
2023-03-08T19:08:04.707Z,10.60
2023-03-08T19:10:32.962Z,9.97
2023-03-08T19:12:59.712Z,10.67
2023-03-08T19:15:26.044Z,12.20
2023-03-08T19:17:56.008Z,11.93
2023-03-08T19:20:22.306Z,13.33
2023-03-08T19:22:48.699Z,9.97
2023-03-08T19:25:16.107Z,12.43
2023-03-08T19:27:42.549Z,13.20
2023-03-08T19:30:09.889Z,10.77
2023-03-08T19:32:36.412Z,10.97
2023-03-08T19:35:04.525Z,11.70
2023-03-08T19:37:31.473Z,12.40
2023-03-08T19:39:58.919Z,11.13
2023-03-08T19:42:26.711Z,12.93
2023-03-08T19:44:53.395Z,13.47
2023-03-08T19:47:22.939Z,12.47
2023-03-08T19:49:50.578Z,12.33
2023-03-08T19:52:16.871Z,12.00
2023-03-08T19:54:44.389Z,11.67
2023-03-08T19:57:11.091Z,13.87
2023-03-08T19:59:37.813Z,11.83
2023-03-08T20:02:04.987Z,12.60
2023-03-08T20:04:31.635Z,12.37
2023-03-08T20:07:01.478Z,13.70
2023-03-08T20:09:27.899Z,13.47
2023-03-08T20:11:57.404Z,13.50
2023-03-08T20:14:26.780Z,12.97
2023-03-08T20:16:53.197Z,12.33
2023-03-08T20:19:19.861Z,14.17
2023-03-08T20:21:46.186Z,13.87
2023-03-08T20:24:13.494Z,12.53
2023-03-08T20:26:41.902Z,13.00
2023-03-08T20:29:08.430Z,13.27
2023-03-08T20:31:34.753Z,13.70
2023-03-08T20:34:01.162Z,14.20
2023-03-08T20:36:28.480Z,14.37
2023-03-08T20:38:55.228Z,14.17
2023-03-08T20:41:22.209Z,13.40
2023-03-08T20:43:49.747Z,12.93
2023-03-08T20:46:20.961Z,12.83
2023-03-08T20:48:47.667Z,13.47
2023-03-08T20:51:15.711Z,13.00
2023-03-08T20:53:42.372Z,14.37
2023-03-08T20:56:10.175Z,14.57
2023-03-08T20:58:36.604Z,12.80
2023-03-08T21:01:10.375Z,14.53
2023-03-08T21:03:36.839Z,12.30
2023-03-08T21:06:03.160Z,11.70
2023-03-08T21:08:29.526Z,14.17
2023-03-08T21:10:58.935Z,11.80
2023-03-08T21:13:25.234Z,12.00
2023-03-08T21:15:51.779Z,13.00
2023-03-08T21:18:18.741Z,11.20
2023-03-08T21:20:45.116Z,12.30
2023-03-08T21:23:11.491Z,12.37
2023-03-08T21:25:38.684Z,11.80
2023-03-08T21:28:05.547Z,11.20
2023-03-08T21:30:32.319Z,12.30
2023-03-08T21:32:58.631Z,9.53
2023-03-08T21:35:25.055Z,10.23
2023-03-08T21:37:51.442Z,10.57
2023-03-08T21:40:17.870Z,12.20
2023-03-08T21:42:44.258Z,10.37
2023-03-08T21:45:10.805Z,10.03
2023-03-08T21:47:37.217Z,11.10
2023-03-08T21:50:04.042Z,10.67
2023-03-08T21:52:30.330Z,10.37
2023-03-08T21:54:56.656Z,10.93
2023-03-08T21:57:22.969Z,10.47
2023-03-08T21:59:49.271Z,9.83
2023-03-08T22:02:15.653Z,10.03
2023-03-08T22:04:41.965Z,10.10
2023-03-08T22:07:08.370Z,11.33
2023-03-08T22:09:34.705Z,11.30
2023-03-08T22:12:01.478Z,10.37
2023-03-08T22:14:28.527Z,9.60
2023-03-08T22:16:56.444Z,12.10
2023-03-08T22:19:22.815Z,12.50
2023-03-08T22:21:49.207Z,11.40
2023-03-08T22:24:15.542Z,11.67
2023-03-08T22:26:43.916Z,11.47
2023-03-08T22:29:10.325Z,11.87
2023-03-08T22:31:36.683Z,11.07
2023-03-08T22:34:03.449Z,11.77
2023-03-08T22:36:29.755Z,11.87
2023-03-08T22:38:56.073Z,11.80
2023-03-08T22:41:23.995Z,11.83
2023-03-08T22:43:51.565Z,11.17
2023-03-08T22:46:19.352Z,11.97
2023-03-08T22:48:47.383Z,11.83
2023-03-08T22:51:14.333Z,11.67
2023-03-08T22:53:40.698Z,11.13
2023-03-08T22:56:08.421Z,11.70
2023-03-08T22:58:34.739Z,10.47
2023-03-08T23:01:01.364Z,9.93
2023-03-08T23:03:27.839Z,10.70
2023-03-08T23:05:54.172Z,11.73
2023-03-08T23:08:22.253Z,12.67
2023-03-08T23:10:49.533Z,11.40
2023-03-08T23:13:31.191Z,10.03
2023-03-08T23:15:59.353Z,11.57
2023-03-08T23:18:25.734Z,11.70
2023-03-08T23:20:52.124Z,10.37
2023-03-08T23:23:18.455Z,11.70
2023-03-08T23:25:44.883Z,9.73
2023-03-08T23:28:11.453Z,9.43
2023-03-08T23:30:37.820Z,9.30
2023-03-08T23:33:04.342Z,7.67
2023-03-08T23:35:30.743Z,7.83
2023-03-08T23:37:57.125Z,8.67
2023-03-08T23:40:23.462Z,8.33
2023-03-08T23:42:49.872Z,9.57
2023-03-08T23:45:16.256Z,9.70
2023-03-08T23:47:42.605Z,7.67
2023-03-08T23:50:09.154Z,8.93
2023-03-08T23:52:35.492Z,9.10
2023-03-08T23:55:01.811Z,9.73
2023-03-08T23:57:28.221Z,8.63
2023-03-08T23:59:54.525Z,9.03
